sensor_id;sensor_type;location;lat;lon;timestamp;temperature;humidity
50067;DHT22;35952;52.524;13.340;2023-04-20T00:00:07;7.40;99.90
50067;DHT22;35952;52.524;13.340;2023-04-20T00:02:36;7.30;99.90
50067;DHT22;35952;52.524;13.340;2023-04-20T00:05:06;7.40;99.90
50067;DHT22;35952;52.524;13.340;2023-04-20T00:07:32;7.50;99.90
50067;DHT22;35952;52.524;13.340;2023-04-20T00:09:58;7.50;99.90
50067;DHT22;35952;52.524;13.340;2023-04-20T00:12:24;7.40;99.90
50067;DHT22;35952;52.524;13.340;2023-04-20T00:14:49;7.40;99.90
50067;DHT22;35952;52.524;13.340;2023-04-20T00:17:15;7.30;99.90
50067;DHT22;35952;52.524;13.340;2023-04-20T00:19:40;7.30;99.90
50067;DHT22;35952;52.524;13.340;2023-04-20T00:22:06;7.30;99.90
50067;DHT22;35952;52.524;13.340;2023-04-20T00:24:31;7.30;99.90
50067;DHT22;35952;52.524;13.340;2023-04-20T00:26:57;7.30;99.90
50067;DHT22;35952;52.524;13.340;2023-04-20T00:29:22;7.30;99.90
50067;DHT22;35952;52.524;13.340;2023-04-20T00:31:48;7.20;99.90
50067;DHT22;35952;52.524;13.340;2023-04-20T00:34:14;7.30;99.90
50067;DHT22;35952;52.524;13.340;2023-04-20T00:36:40;7.40;99.90
50067;DHT22;35952;52.524;13.340;2023-04-20T00:39:05;7.30;99.90
50067;DHT22;35952;52.524;13.340;2023-04-20T00:41:31;7.20;99.90
50067;DHT22;35952;52.524;13.340;2023-04-20T00:43:56;7.30;99.90
50067;DHT22;35952;52.524;13.340;2023-04-20T00:46:22;7.20;99.90
50067;DHT22;35952;52.524;13.340;2023-04-20T00:48:49;7.20;99.90
50067;DHT22;35952;52.524;13.340;2023-04-20T00:51:19;7.20;99.90
50067;DHT22;35952;52.524;13.340;2023-04-20T00:53:45;7.20;99.90
50067;DHT22;35952;52.524;13.340;2023-04-20T00:56:12;7.30;99.90
50067;DHT22;35952;52.524;13.340;2023-04-20T00:58:38;7.20;99.90
50067;DHT22;35952;52.524;13.340;2023-04-20T01:01:04;7.20;99.90
50067;DHT22;35952;52.524;13.340;2023-04-20T01:03:30;7.20;99.90
50067;DHT22;35952;52.524;13.340;2023-04-20T01:05:56;7.30;99.90
50067;DHT22;35952;52.524;13.340;2023-04-20T01:08:25;7.40;99.90
50067;DHT22;35952;52.524;13.340;2023-04-20T01:10:53;7.40;99.90
50067;DHT22;35952;52.524;13.340;2023-04-20T01:13:18;7.40;99.90
50067;DHT22;35952;52.524;13.340;2023-04-20T01:15:44;7.40;99.90
50067;DHT22;35952;52.524;13.340;2023-04-20T01:18:09;7.40;99.90
50067;DHT22;35952;52.524;13.340;2023-04-20T01:20:36;7.40;99.90
50067;DHT22;35952;52.524;13.340;2023-04-20T01:23:01;7.40;99.90
50067;DHT22;35952;52.524;13.340;2023-04-20T01:25:27;7.30;99.90
50067;DHT22;35952;52.524;13.340;2023-04-20T01:27:53;7.20;99.90
50067;DHT22;35952;52.524;13.340;2023-04-20T01:30:19;7.10;99.90
50067;DHT22;35952;52.524;13.340;2023-04-20T01:32:45;7.10;99.90
50067;DHT22;35952;52.524;13.340;2023-04-20T01:35:11;7.20;99.90
50067;DHT22;35952;52.524;13.340;2023-04-20T01:37:37;7.20;99.90
50067;DHT22;35952;52.524;13.340;2023-04-20T01:40:03;7.20;99.90
50067;DHT22;35952;52.524;13.340;2023-04-20T01:42:30;7.10;99.90
50067;DHT22;35952;52.524;13.340;2023-04-20T01:44:56;7.00;99.90
50067;DHT22;35952;52.524;13.340;2023-04-20T01:47:21;7.20;99.90
50067;DHT22;35952;52.524;13.340;2023-04-20T01:49:56;7.20;99.90
50067;DHT22;35952;52.524;13.340;2023-04-20T01:52:34;7.20;99.90
50067;DHT22;35952;52.524;13.340;2023-04-20T01:55:18;7.10;99.90
50067;DHT22;35952;52.524;13.340;2023-04-20T01:58:02;7.10;99.90
50067;DHT22;35952;52.524;13.340;2023-04-20T02:04:30;6.90;99.90
50067;DHT22;35952;52.524;13.340;2023-04-20T02:10:44;6.90;99.90
50067;DHT22;35952;52.524;13.340;2023-04-20T02:13:23;6.90;99.90
50067;DHT22;35952;52.524;13.340;2023-04-20T02:16:01;7.00;99.90
50067;DHT22;35952;52.524;13.340;2023-04-20T02:18:40;7.00;99.90
50067;DHT22;35952;52.524;13.340;2023-04-20T02:21:17;7.10;99.90
50067;DHT22;35952;52.524;13.340;2023-04-20T02:24:05;7.00;99.90
50067;DHT22;35952;52.524;13.340;2023-04-20T02:26:56;7.10;99.90
50067;DHT22;35952;52.524;13.340;2023-04-20T02:30:09;7.30;99.90
50067;DHT22;35952;52.524;13.340;2023-04-20T02:32:50;7.30;99.90
50067;DHT22;35952;52.524;13.340;2023-04-20T02:35:59;7.30;99.90
50067;DHT22;35952;52.524;13.340;2023-04-20T02:38:43;7.40;99.90
50067;DHT22;35952;52.524;13.340;2023-04-20T02:41:48;7.30;99.90
50067;DHT22;35952;52.524;13.340;2023-04-20T02:44:39;7.30;99.90
50067;DHT22;35952;52.524;13.340;2023-04-20T02:47:29;7.20;99.90
50067;DHT22;35952;52.524;13.340;2023-04-20T02:50:31;7.20;99.90
50067;DHT22;35952;52.524;13.340;2023-04-20T02:53:09;7.40;99.90
50067;DHT22;35952;52.524;13.340;2023-04-20T02:56:20;7.40;99.90
50067;DHT22;35952;52.524;13.340;2023-04-20T02:58:42;7.40;99.90
50067;DHT22;35952;52.524;13.340;2023-04-20T03:01:11;7.30;99.90
50067;DHT22;35952;52.524;13.340;2023-04-20T03:22:26;7.50;99.90
50067;DHT22;35952;52.524;13.340;2023-04-20T03:32:23;7.50;99.90
50067;DHT22;35952;52.524;13.340;2023-04-20T03:55:47;7.60;99.90
50067;DHT22;35952;52.524;13.340;2023-04-20T04:05:32;7.60;99.90
50067;DHT22;35952;52.524;13.340;2023-04-20T04:15:15;7.50;99.90
50067;DHT22;35952;52.524;13.340;2023-04-20T04:52:11;7.80;99.90
50067;DHT22;35952;52.524;13.340;2023-04-20T04:54:59;7.70;99.90
50067;DHT22;35952;52.524;13.340;2023-04-20T04:57:49;7.70;99.90
50067;DHT22;35952;52.524;13.340;2023-04-20T05:00:43;7.70;99.90
50067;DHT22;35952;52.524;13.340;2023-04-20T05:03:49;7.70;99.90
50067;DHT22;35952;52.524;13.340;2023-04-20T05:13:06;7.80;99.90
50067;DHT22;35952;52.524;13.340;2023-04-20T05:20:09;7.90;99.90
50067;DHT22;35952;52.524;13.340;2023-04-20T05:25:51;7.90;99.90
50067;DHT22;35952;52.524;13.340;2023-04-20T05:28:37;7.90;99.90
50067;DHT22;35952;52.524;13.340;2023-04-20T05:31:08;7.90;99.90
50067;DHT22;35952;52.524;13.340;2023-04-20T05:34:17;8.00;99.90
50067;DHT22;35952;52.524;13.340;2023-04-20T05:40:56;8.10;99.90
50067;DHT22;35952;52.524;13.340;2023-04-20T05:46:55;8.10;99.90
50067;DHT22;35952;52.524;13.340;2023-04-20T05:49:44;8.30;99.90
50067;DHT22;35952;52.524;13.340;2023-04-20T05:52:35;8.10;99.90
50067;DHT22;35952;52.524;13.340;2023-04-20T05:59:12;8.20;99.90
50067;DHT22;35952;52.524;13.340;2023-04-20T06:02:25;8.30;99.90
50067;DHT22;35952;52.524;13.340;2023-04-20T06:05:13;8.40;99.90
50067;DHT22;35952;52.524;13.340;2023-04-20T06:11:23;8.60;99.90
50067;DHT22;35952;52.524;13.340;2023-04-20T06:21:13;8.60;99.90
50067;DHT22;35952;52.524;13.340;2023-04-20T06:24:33;8.40;99.90
50067;DHT22;35952;52.524;13.340;2023-04-20T06:27:09;8.20;99.90
50067;DHT22;35952;52.524;13.340;2023-04-20T06:29:35;8.50;99.90
50067;DHT22;35952;52.524;13.340;2023-04-20T06:35:05;8.70;99.90
50067;DHT22;35952;52.524;13.340;2023-04-20T06:40:50;8.60;99.90
50067;DHT22;35952;52.524;13.340;2023-04-20T06:43:18;8.70;99.90
50067;DHT22;35952;52.524;13.340;2023-04-20T06:45:44;8.60;99.90
50067;DHT22;35952;52.524;13.340;2023-04-20T06:48:13;8.80;99.90
50067;DHT22;35952;52.524;13.340;2023-04-20T06:50:47;9.00;99.90
50067;DHT22;35952;52.524;13.340;2023-04-20T06:53:13;8.90;99.90
50067;DHT22;35952;52.524;13.340;2023-04-20T06:55:40;8.90;99.90
50067;DHT22;35952;52.524;13.340;2023-04-20T06:58:08;9.10;99.90
50067;DHT22;35952;52.524;13.340;2023-04-20T07:00:34;8.90;99.90
50067;DHT22;35952;52.524;13.340;2023-04-20T07:03:06;9.20;99.90
50067;DHT22;35952;52.524;13.340;2023-04-20T07:05:32;9.00;99.90
50067;DHT22;35952;52.524;13.340;2023-04-20T07:08:14;9.40;99.90
50067;DHT22;35952;52.524;13.340;2023-04-20T07:10:49;9.70;99.90
50067;DHT22;35952;52.524;13.340;2023-04-20T07:13:24;10.20;99.90
50067;DHT22;35952;52.524;13.340;2023-04-20T07:15:53;10.40;99.90
50067;DHT22;35952;52.524;13.340;2023-04-20T07:18:21;10.90;99.90
50067;DHT22;35952;52.524;13.340;2023-04-20T07:20:51;11.20;99.90
50067;DHT22;35952;52.524;13.340;2023-04-20T07:23:20;11.60;99.90
50067;DHT22;35952;52.524;13.340;2023-04-20T07:26:37;11.40;99.90
50067;DHT22;35952;52.524;13.340;2023-04-20T07:29:03;11.30;99.90
50067;DHT22;35952;52.524;13.340;2023-04-20T07:35:26;10.70;99.90
50067;DHT22;35952;52.524;13.340;2023-04-20T07:41:48;11.50;99.90
50067;DHT22;35952;52.524;13.340;2023-04-20T07:44:17;12.10;99.90
50067;DHT22;35952;52.524;13.340;2023-04-20T07:46:46;12.30;99.90
50067;DHT22;35952;52.524;13.340;2023-04-20T07:52:48;12.20;99.90
50067;DHT22;35952;52.524;13.340;2023-04-20T07:58:23;11.60;99.90
50067;DHT22;35952;52.524;13.340;2023-04-20T08:00:57;11.70;99.90
50067;DHT22;35952;52.524;13.340;2023-04-20T08:06:45;11.20;99.90
50067;DHT22;35952;52.524;13.340;2023-04-20T08:09:34;11.30;99.90
50067;DHT22;35952;52.524;13.340;2023-04-20T08:15:39;11.20;99.90
50067;DHT22;35952;52.524;13.340;2023-04-20T08:18:11;11.00;99.90
50067;DHT22;35952;52.524;13.340;2023-04-20T08:20:56;11.20;99.90
50067;DHT22;35952;52.524;13.340;2023-04-20T08:23:48;11.20;99.90
50067;DHT22;35952;52.524;13.340;2023-04-20T08:26:50;11.30;99.90
50067;DHT22;35952;52.524;13.340;2023-04-20T08:33:20;11.70;99.90
50067;DHT22;35952;52.524;13.340;2023-04-20T08:35:57;11.80;99.90
50067;DHT22;35952;52.524;13.340;2023-04-20T08:39:19;12.00;99.90
50067;DHT22;35952;52.524;13.340;2023-04-20T08:41:58;12.20;99.90
50067;DHT22;35952;52.524;13.340;2023-04-20T08:47:37;12.10;99.90
50067;DHT22;35952;52.524;13.340;2023-04-20T08:50:20;11.50;99.90
50067;DHT22;35952;52.524;13.340;2023-04-20T08:56:00;11.00;99.90
50067;DHT22;35952;52.524;13.340;2023-04-20T08:58:41;10.80;99.90
50067;DHT22;35952;52.524;13.340;2023-04-20T09:01:36;10.60;99.90
50067;DHT22;35952;52.524;13.340;2023-04-20T09:07:40;10.00;99.90
50067;DHT22;35952;52.524;13.340;2023-04-20T09:10:36;10.00;99.90
50067;DHT22;35952;52.524;13.340;2023-04-20T09:13:20;9.90;99.90
50067;DHT22;35952;52.524;13.340;2023-04-20T09:16:08;9.80;99.90
50067;DHT22;35952;52.524;13.340;2023-04-20T09:19:01;9.80;99.90
50067;DHT22;35952;52.524;13.340;2023-04-20T09:22:02;9.70;99.90
50067;DHT22;35952;52.524;13.340;2023-04-20T09:24:43;9.70;99.90
50067;DHT22;35952;52.524;13.340;2023-04-20T09:27:33;9.70;99.90
50067;DHT22;35952;52.524;13.340;2023-04-20T09:30:35;9.70;99.90
50067;DHT22;35952;52.524;13.340;2023-04-20T09:33:26;9.50;99.90
50067;DHT22;35952;52.524;13.340;2023-04-20T09:39:28;9.50;99.90
50067;DHT22;35952;52.524;13.340;2023-04-20T09:42:15;9.70;99.90
50067;DHT22;35952;52.524;13.340;2023-04-20T09:44:50;9.90;99.90
50067;DHT22;35952;52.524;13.340;2023-04-20T09:47:25;10.20;99.90
50067;DHT22;35952;52.524;13.340;2023-04-20T09:49:55;10.50;99.90
50067;DHT22;35952;52.524;13.340;2023-04-20T09:52:45;10.90;99.90
50067;DHT22;35952;52.524;13.340;2023-04-20T09:55:22;11.30;99.90
50067;DHT22;35952;52.524;13.340;2023-04-20T09:58:26;11.60;99.90
50067;DHT22;35952;52.524;13.340;2023-04-20T10:00:52;11.90;99.90
50067;DHT22;35952;52.524;13.340;2023-04-20T10:03:24;12.20;99.90
50067;DHT22;35952;52.524;13.340;2023-04-20T10:06:24;12.50;99.90
50067;DHT22;35952;52.524;13.340;2023-04-20T10:09:23;12.60;99.90
50067;DHT22;35952;52.524;13.340;2023-04-20T10:12:15;12.70;99.90
50067;DHT22;35952;52.524;13.340;2023-04-20T10:14:41;13.00;99.90
50067;DHT22;35952;52.524;13.340;2023-04-20T10:17:29;13.00;99.90
50067;DHT22;35952;52.524;13.340;2023-04-20T10:20:36;13.10;99.90
50067;DHT22;35952;52.524;13.340;2023-04-20T10:23:09;13.60;99.90
50067;DHT22;35952;52.524;13.340;2023-04-20T10:25:56;13.70;99.90
50067;DHT22;35952;52.524;13.340;2023-04-20T10:28:46;13.70;99.90
50067;DHT22;35952;52.524;13.340;2023-04-20T10:31:18;13.70;99.90
50067;DHT22;35952;52.524;13.340;2023-04-20T10:33:56;13.90;99.90
50067;DHT22;35952;52.524;13.340;2023-04-20T10:36:33;14.20;99.90
50067;DHT22;35952;52.524;13.340;2023-04-20T10:39:12;15.40;99.90
50067;DHT22;35952;52.524;13.340;2023-04-20T10:42:00;16.00;99.90
50067;DHT22;35952;52.524;13.340;2023-04-20T10:44:46;16.60;99.90
50067;DHT22;35952;52.524;13.340;2023-04-20T10:47:16;16.40;99.90
50067;DHT22;35952;52.524;13.340;2023-04-20T10:49:43;16.10;99.90
50067;DHT22;35952;52.524;13.340;2023-04-20T10:52:09;16.50;99.90
50067;DHT22;35952;52.524;13.340;2023-04-20T10:54:39;16.80;99.90
50067;DHT22;35952;52.524;13.340;2023-04-20T10:57:06;17.40;99.90
50067;DHT22;35952;52.524;13.340;2023-04-20T10:59:33;17.80;99.90
50067;DHT22;35952;52.524;13.340;2023-04-20T11:02:06;18.10;99.90
50067;DHT22;35952;52.524;13.340;2023-04-20T11:04:32;18.10;99.90
50067;DHT22;35952;52.524;13.340;2023-04-20T11:07:09;18.20;99.90
50067;DHT22;35952;52.524;13.340;2023-04-20T11:09:35;18.00;99.90
50067;DHT22;35952;52.524;13.340;2023-04-20T11:14:33;16.50;99.90
50067;DHT22;35952;52.524;13.340;2023-04-20T11:16:59;16.10;99.90
50067;DHT22;35952;52.524;13.340;2023-04-20T11:19:28;15.50;99.90
50067;DHT22;35952;52.524;13.340;2023-04-20T11:21:54;15.30;99.90
50067;DHT22;35952;52.524;13.340;2023-04-20T11:24:21;14.90;99.90
50067;DHT22;35952;52.524;13.340;2023-04-20T11:26:48;14.50;99.90
50067;DHT22;35952;52.524;13.340;2023-04-20T11:29:37;14.50;99.90
50067;DHT22;35952;52.524;13.340;2023-04-20T11:32:08;14.40;99.90
50067;DHT22;35952;52.524;13.340;2023-04-20T11:34:36;14.10;99.90
50067;DHT22;35952;52.524;13.340;2023-04-20T11:37:09;14.00;99.90
50067;DHT22;35952;52.524;13.340;2023-04-20T11:39:39;14.20;99.90
50067;DHT22;35952;52.524;13.340;2023-04-20T11:42:06;14.50;99.90
50067;DHT22;35952;52.524;13.340;2023-04-20T11:44:31;14.90;99.90
50067;DHT22;35952;52.524;13.340;2023-04-20T11:46:58;14.90;99.90
50067;DHT22;35952;52.524;13.340;2023-04-20T11:49:24;14.90;99.90
50067;DHT22;35952;52.524;13.340;2023-04-20T11:51:50;14.80;99.90
50067;DHT22;35952;52.524;13.340;2023-04-20T11:54:16;15.20;99.90
50067;DHT22;35952;52.524;13.340;2023-04-20T11:56:46;15.70;99.90
50067;DHT22;35952;52.524;13.340;2023-04-20T11:59:12;15.70;99.90
50067;DHT22;35952;52.524;13.340;2023-04-20T12:01:44;15.70;99.90
50067;DHT22;35952;52.524;13.340;2023-04-20T12:04:13;15.60;99.90
50067;DHT22;35952;52.524;13.340;2023-04-20T12:06:39;15.60;99.90
50067;DHT22;35952;52.524;13.340;2023-04-20T12:09:05;15.50;99.90
50067;DHT22;35952;52.524;13.340;2023-04-20T12:11:31;15.50;99.90
50067;DHT22;35952;52.524;13.340;2023-04-20T12:13:56;15.20;99.90
50067;DHT22;35952;52.524;13.340;2023-04-20T12:16:22;15.40;99.90
50067;DHT22;35952;52.524;13.340;2023-04-20T12:18:48;15.30;99.90
50067;DHT22;35952;52.524;13.340;2023-04-20T12:21:14;15.30;99.90
50067;DHT22;35952;52.524;13.340;2023-04-20T12:23:39;15.20;99.90
50067;DHT22;35952;52.524;13.340;2023-04-20T12:26:05;15.00;99.90
50067;DHT22;35952;52.524;13.340;2023-04-20T12:28:31;15.10;99.90
50067;DHT22;35952;52.524;13.340;2023-04-20T12:30:57;15.50;99.90
50067;DHT22;35952;52.524;13.340;2023-04-20T12:33:23;15.70;99.90
50067;DHT22;35952;52.524;13.340;2023-04-20T12:35:49;15.70;99.90
50067;DHT22;35952;52.524;13.340;2023-04-20T12:38:14;16.20;99.90
50067;DHT22;35952;52.524;13.340;2023-04-20T12:40:40;16.70;99.90
50067;DHT22;35952;52.524;13.340;2023-04-20T12:43:05;16.70;99.90
50067;DHT22;35952;52.524;13.340;2023-04-20T12:45:31;16.50;99.90
50067;DHT22;35952;52.524;13.340;2023-04-20T12:47:57;16.50;99.90
50067;DHT22;35952;52.524;13.340;2023-04-20T12:50:23;16.40;99.90
50067;DHT22;35952;52.524;13.340;2023-04-20T12:52:49;16.50;99.90
50067;DHT22;35952;52.524;13.340;2023-04-20T12:55:16;16.80;99.90
50067;DHT22;35952;52.524;13.340;2023-04-20T12:57:43;16.80;99.90
50067;DHT22;35952;52.524;13.340;2023-04-20T13:00:09;16.40;99.90
50067;DHT22;35952;52.524;13.340;2023-04-20T13:02:34;16.10;99.90
50067;DHT22;35952;52.524;13.340;2023-04-20T13:05:00;16.00;99.90
50067;DHT22;35952;52.524;13.340;2023-04-20T13:07:25;15.80;99.90
50067;DHT22;35952;52.524;13.340;2023-04-20T13:09:52;16.10;99.90
50067;DHT22;35952;52.524;13.340;2023-04-20T13:12:17;17.70;99.90
50067;DHT22;35952;52.524;13.340;2023-04-20T13:14:43;19.90;99.90
50067;DHT22;35952;52.524;13.340;2023-04-20T13:17:09;21.80;93.70
50067;DHT22;35952;52.524;13.340;2023-04-20T13:19:34;22.40;80.30
50067;DHT22;35952;52.524;13.340;2023-04-20T13:22:00;23.10;72.00
50067;DHT22;35952;52.524;13.340;2023-04-20T13:24:25;22.50;66.80
50067;DHT22;35952;52.524;13.340;2023-04-20T13:26:53;21.00;70.50
50067;DHT22;35952;52.524;13.340;2023-04-20T13:29:23;19.70;76.70
50067;DHT22;35952;52.524;13.340;2023-04-20T13:31:48;19.10;84.60
50067;DHT22;35952;52.524;13.340;2023-04-20T13:34:14;18.30;92.50
50067;DHT22;35952;52.524;13.340;2023-04-20T13:36:40;18.10;95.20
50067;DHT22;35952;52.524;13.340;2023-04-20T13:39:07;17.80;98.30
50067;DHT22;35952;52.524;13.340;2023-04-20T13:41:34;17.90;99.90
50067;DHT22;35952;52.524;13.340;2023-04-20T13:43:59;18.20;99.30
50067;DHT22;35952;52.524;13.340;2023-04-20T13:46:26;18.60;97.40
50067;DHT22;35952;52.524;13.340;2023-04-20T13:48:52;18.60;96.10
50067;DHT22;35952;52.524;13.340;2023-04-20T13:51:18;17.80;99.40
50067;DHT22;35952;52.524;13.340;2023-04-20T13:53:43;17.60;99.90
50067;DHT22;35952;52.524;13.340;2023-04-20T13:56:09;18.00;99.90
50067;DHT22;35952;52.524;13.340;2023-04-20T13:58:34;17.80;99.90
50067;DHT22;35952;52.524;13.340;2023-04-20T14:01:05;17.80;99.50
50067;DHT22;35952;52.524;13.340;2023-04-20T14:03:31;17.60;99.90
50067;DHT22;35952;52.524;13.340;2023-04-20T14:05:56;17.40;99.90
50067;DHT22;35952;52.524;13.340;2023-04-20T14:08:22;17.70;99.90
50067;DHT22;35952;52.524;13.340;2023-04-20T14:10:48;18.10;99.90
50067;DHT22;35952;52.524;13.340;2023-04-20T14:13:13;19.50;97.00
50067;DHT22;35952;52.524;13.340;2023-04-20T14:15:40;21.60;85.80
50067;DHT22;35952;52.524;13.340;2023-04-20T14:18:05;23.00;71.60
50067;DHT22;35952;52.524;13.340;2023-04-20T14:20:31;23.40;63.90
50067;DHT22;35952;52.524;13.340;2023-04-20T14:22:57;22.20;63.60
50067;DHT22;35952;52.524;13.340;2023-04-20T14:25:22;22.60;64.90
50067;DHT22;35952;52.524;13.340;2023-04-20T14:27:48;23.10;65.00
50067;DHT22;35952;52.524;13.340;2023-04-20T14:30:13;22.60;63.40
50067;DHT22;35952;52.524;13.340;2023-04-20T14:32:39;22.20;64.40
50067;DHT22;35952;52.524;13.340;2023-04-20T14:35:07;21.40;65.00
50067;DHT22;35952;52.524;13.340;2023-04-20T14:37:33;20.50;70.30
50067;DHT22;35952;52.524;13.340;2023-04-20T14:39:59;19.70;71.90
50067;DHT22;35952;52.524;13.340;2023-04-20T14:42:24;18.90;75.50
50067;DHT22;35952;52.524;13.340;2023-04-20T14:44:50;18.40;80.60
50067;DHT22;35952;52.524;13.340;2023-04-20T14:47:15;17.80;90.10
50067;DHT22;35952;52.524;13.340;2023-04-20T14:49:41;17.90;91.70
50067;DHT22;35952;52.524;13.340;2023-04-20T14:52:08;18.00;94.60
50067;DHT22;35952;52.524;13.340;2023-04-20T14:54:34;18.40;92.00
50067;DHT22;35952;52.524;13.340;2023-04-20T14:57:00;18.50;91.10
50067;DHT22;35952;52.524;13.340;2023-04-20T14:59:25;18.80;90.50
50067;DHT22;35952;52.524;13.340;2023-04-20T15:01:52;18.80;88.70
50067;DHT22;35952;52.524;13.340;2023-04-20T15:04:17;18.50;89.10
50067;DHT22;35952;52.524;13.340;2023-04-20T15:06:43;18.20;90.50
50067;DHT22;35952;52.524;13.340;2023-04-20T15:09:09;17.90;91.90
50067;DHT22;35952;52.524;13.340;2023-04-20T15:11:34;17.60;91.90
50067;DHT22;35952;52.524;13.340;2023-04-20T15:14:00;17.40;93.50
50067;DHT22;35952;52.524;13.340;2023-04-20T15:16:26;17.20;94.30
50067;DHT22;35952;52.524;13.340;2023-04-20T15:18:51;17.00;95.40
50067;DHT22;35952;52.524;13.340;2023-04-20T15:21:20;17.00;96.60
50067;DHT22;35952;52.524;13.340;2023-04-20T15:23:46;16.90;98.20
50067;DHT22;35952;52.524;13.340;2023-04-20T15:26:11;16.80;99.30
50067;DHT22;35952;52.524;13.340;2023-04-20T15:28:37;16.70;99.90
50067;DHT22;35952;52.524;13.340;2023-04-20T15:31:06;16.70;99.90
50067;DHT22;35952;52.524;13.340;2023-04-20T15:33:31;16.60;99.90
50067;DHT22;35952;52.524;13.340;2023-04-20T15:35:57;16.60;99.90
50067;DHT22;35952;52.524;13.340;2023-04-20T15:38:22;16.60;99.90
50067;DHT22;35952;52.524;13.340;2023-04-20T15:40:48;16.50;99.90
50067;DHT22;35952;52.524;13.340;2023-04-20T15:43:15;16.70;99.90
50067;DHT22;35952;52.524;13.340;2023-04-20T15:45:41;16.70;99.90
50067;DHT22;35952;52.524;13.340;2023-04-20T15:48:06;16.70;99.90
50067;DHT22;35952;52.524;13.340;2023-04-20T15:50:33;16.80;99.90
50067;DHT22;35952;52.524;13.340;2023-04-20T15:52:59;16.90;99.90
50067;DHT22;35952;52.524;13.340;2023-04-20T15:55:25;16.80;99.90
50067;DHT22;35952;52.524;13.340;2023-04-20T15:57:51;16.80;99.90
50067;DHT22;35952;52.524;13.340;2023-04-20T16:00:22;16.70;99.90
50067;DHT22;35952;52.524;13.340;2023-04-20T16:02:48;16.70;99.90
50067;DHT22;35952;52.524;13.340;2023-04-20T16:05:14;16.60;99.90
50067;DHT22;35952;52.524;13.340;2023-04-20T16:07:39;16.60;99.90
50067;DHT22;35952;52.524;13.340;2023-04-20T16:10:05;16.60;99.90
50067;DHT22;35952;52.524;13.340;2023-04-20T16:12:31;16.50;99.90
50067;DHT22;35952;52.524;13.340;2023-04-20T16:15:00;16.50;99.90
50067;DHT22;35952;52.524;13.340;2023-04-20T16:17:26;16.40;99.90
50067;DHT22;35952;52.524;13.340;2023-04-20T16:19:51;16.30;99.90
50067;DHT22;35952;52.524;13.340;2023-04-20T16:22:17;16.30;99.90
50067;DHT22;35952;52.524;13.340;2023-04-20T16:24:43;16.30;99.90
50067;DHT22;35952;52.524;13.340;2023-04-20T16:27:08;16.30;99.90
50067;DHT22;35952;52.524;13.340;2023-04-20T16:29:34;16.20;99.90
50067;DHT22;35952;52.524;13.340;2023-04-20T16:31:59;16.20;99.90
50067;DHT22;35952;52.524;13.340;2023-04-20T16:34:25;16.00;99.90
50067;DHT22;35952;52.524;13.340;2023-04-20T16:36:50;16.00;99.90
50067;DHT22;35952;52.524;13.340;2023-04-20T16:39:16;16.00;99.90
50067;DHT22;35952;52.524;13.340;2023-04-20T16:41:42;16.10;99.90
50067;DHT22;35952;52.524;13.340;2023-04-20T16:44:10;16.10;99.90
50067;DHT22;35952;52.524;13.340;2023-04-20T16:46:40;16.30;99.90
50067;DHT22;35952;52.524;13.340;2023-04-20T16:49:08;16.30;99.90
50067;DHT22;35952;52.524;13.340;2023-04-20T16:51:34;16.40;99.90
50067;DHT22;35952;52.524;13.340;2023-04-20T16:53:59;16.40;99.90
50067;DHT22;35952;52.524;13.340;2023-04-20T16:56:26;16.50;99.90
50067;DHT22;35952;52.524;13.340;2023-04-20T16:58:51;16.50;99.90
50067;DHT22;35952;52.524;13.340;2023-04-20T17:01:17;16.50;99.90
50067;DHT22;35952;52.524;13.340;2023-04-20T17:03:42;16.50;99.90
50067;DHT22;35952;52.524;13.340;2023-04-20T17:06:08;16.40;99.90
50067;DHT22;35952;52.524;13.340;2023-04-20T17:08:35;16.40;99.90
50067;DHT22;35952;52.524;13.340;2023-04-20T17:11:02;16.30;99.90
50067;DHT22;35952;52.524;13.340;2023-04-20T17:13:29;16.30;99.90
50067;DHT22;35952;52.524;13.340;2023-04-20T17:15:54;16.30;99.90
50067;DHT22;35952;52.524;13.340;2023-04-20T17:18:20;16.20;99.90
50067;DHT22;35952;52.524;13.340;2023-04-20T17:20:46;16.10;99.90
50067;DHT22;35952;52.524;13.340;2023-04-20T17:23:14;15.90;99.90
50067;DHT22;35952;52.524;13.340;2023-04-20T17:25:40;15.90;99.90
50067;DHT22;35952;52.524;13.340;2023-04-20T17:28:07;15.80;99.90
50067;DHT22;35952;52.524;13.340;2023-04-20T17:30:33;15.60;99.90
50067;DHT22;35952;52.524;13.340;2023-04-20T17:32:58;15.60;99.90
50067;DHT22;35952;52.524;13.340;2023-04-20T17:35:25;15.50;99.90
50067;DHT22;35952;52.524;13.340;2023-04-20T17:37:50;15.50;99.90
50067;DHT22;35952;52.524;13.340;2023-04-20T17:40:16;15.40;99.90
50067;DHT22;35952;52.524;13.340;2023-04-20T17:42:42;15.30;99.90
50067;DHT22;35952;52.524;13.340;2023-04-20T17:45:07;15.30;99.90
50067;DHT22;35952;52.524;13.340;2023-04-20T17:47:33;15.10;99.90
50067;DHT22;35952;52.524;13.340;2023-04-20T17:49:58;15.00;99.90
50067;DHT22;35952;52.524;13.340;2023-04-20T17:52:25;15.00;99.90
50067;DHT22;35952;52.524;13.340;2023-04-20T17:54:52;14.90;99.90
50067;DHT22;35952;52.524;13.340;2023-04-20T17:57:18;14.90;99.90
50067;DHT22;35952;52.524;13.340;2023-04-20T17:59:44;14.80;99.90
50067;DHT22;35952;52.524;13.340;2023-04-20T18:02:11;14.80;99.90
50067;DHT22;35952;52.524;13.340;2023-04-20T18:04:36;14.80;99.90
50067;DHT22;35952;52.524;13.340;2023-04-20T18:07:03;14.80;99.90
50067;DHT22;35952;52.524;13.340;2023-04-20T18:09:29;14.60;99.90
50067;DHT22;35952;52.524;13.340;2023-04-20T18:11:54;14.60;99.90
50067;DHT22;35952;52.524;13.340;2023-04-20T18:14:20;14.60;99.90
50067;DHT22;35952;52.524;13.340;2023-04-20T18:16:45;14.70;99.90
50067;DHT22;35952;52.524;13.340;2023-04-20T18:19:16;14.60;99.90
50067;DHT22;35952;52.524;13.340;2023-04-20T18:21:41;14.50;99.90
50067;DHT22;35952;52.524;13.340;2023-04-20T18:24:07;14.40;99.90
50067;DHT22;35952;52.524;13.340;2023-04-20T18:26:32;14.50;99.90
50067;DHT22;35952;52.524;13.340;2023-04-20T18:28:58;14.50;99.90
50067;DHT22;35952;52.524;13.340;2023-04-20T18:31:23;14.40;99.90
50067;DHT22;35952;52.524;13.340;2023-04-20T18:33:49;14.30;99.90
50067;DHT22;35952;52.524;13.340;2023-04-20T18:36:15;14.20;99.90
50067;DHT22;35952;52.524;13.340;2023-04-20T18:38:40;14.30;99.90
50067;DHT22;35952;52.524;13.340;2023-04-20T18:41:06;14.30;99.90
50067;DHT22;35952;52.524;13.340;2023-04-20T18:43:31;14.20;99.90
50067;DHT22;35952;52.524;13.340;2023-04-20T18:45:57;14.10;99.90
50067;DHT22;35952;52.524;13.340;2023-04-20T18:48:22;14.00;99.90
50067;DHT22;35952;52.524;13.340;2023-04-20T18:50:48;14.00;99.90
50067;DHT22;35952;52.524;13.340;2023-04-20T18:53:14;13.90;99.90